sensor_id;sensor_type;location;lat;lon;timestamp;temperature;humidity
68011;DHT22;54794;48.348;7.878;2022-11-12T00:00:58;11.90;72.60
68011;DHT22;54794;48.348;7.878;2022-11-12T00:03:25;12.00;72.70
68011;DHT22;54794;48.348;7.878;2022-11-12T00:05:52;11.90;72.70
68011;DHT22;54794;48.348;7.878;2022-11-12T00:08:19;11.90;72.70
68011;DHT22;54794;48.348;7.878;2022-11-12T00:10:46;11.90;72.70
68011;DHT22;54794;48.348;7.878;2022-11-12T00:13:13;11.90;72.70
68011;DHT22;54794;48.348;7.878;2022-11-12T00:15:40;11.90;72.50
68011;DHT22;54794;48.348;7.878;2022-11-12T00:18:07;11.80;72.50
68011;DHT22;54794;48.348;7.878;2022-11-12T00:20:34;11.80;72.50
68011;DHT22;54794;48.348;7.878;2022-11-12T00:23:03;11.80;72.50
68011;DHT22;54794;48.348;7.878;2022-11-12T00:25:30;11.80;72.50
68011;DHT22;54794;48.348;7.878;2022-11-12T00:28:04;11.70;72.50
68011;DHT22;54794;48.348;7.878;2022-11-12T00:30:33;11.70;72.60
68011;DHT22;54794;48.348;7.878;2022-11-12T00:33:03;11.70;72.60
68011;DHT22;54794;48.348;7.878;2022-11-12T00:35:31;11.70;72.70
68011;DHT22;54794;48.348;7.878;2022-11-12T00:37:59;11.70;73.10
68011;DHT22;54794;48.348;7.878;2022-11-12T00:40:27;11.70;72.70
68011;DHT22;54794;48.348;7.878;2022-11-12T00:42:54;11.70;72.60
68011;DHT22;54794;48.348;7.878;2022-11-12T00:45:21;11.70;72.60
68011;DHT22;54794;48.348;7.878;2022-11-12T00:47:49;11.70;72.60
68011;DHT22;54794;48.348;7.878;2022-11-12T00:50:19;11.70;72.60
68011;DHT22;54794;48.348;7.878;2022-11-12T00:52:45;11.70;72.70
68011;DHT22;54794;48.348;7.878;2022-11-12T00:55:12;11.70;72.70
68011;DHT22;54794;48.348;7.878;2022-11-12T00:57:39;11.60;72.50
68011;DHT22;54794;48.348;7.878;2022-11-12T01:00:06;11.60;72.50
68011;DHT22;54794;48.348;7.878;2022-11-12T01:02:34;11.60;72.60
68011;DHT22;54794;48.348;7.878;2022-11-12T01:05:09;11.60;72.60
68011;DHT22;54794;48.348;7.878;2022-11-12T01:07:35;11.60;72.50
68011;DHT22;54794;48.348;7.878;2022-11-12T01:10:03;11.60;72.60
68011;DHT22;54794;48.348;7.878;2022-11-12T01:12:31;11.60;73.20
68011;DHT22;54794;48.348;7.878;2022-11-12T01:14:58;11.50;72.70
68011;DHT22;54794;48.348;7.878;2022-11-12T01:17:25;11.50;72.70
68011;DHT22;54794;48.348;7.878;2022-11-12T01:19:52;11.50;72.80
68011;DHT22;54794;48.348;7.878;2022-11-12T01:22:18;11.50;72.80
68011;DHT22;54794;48.348;7.878;2022-11-12T01:24:45;11.50;72.80
68011;DHT22;54794;48.348;7.878;2022-11-12T01:27:12;11.50;72.80
68011;DHT22;54794;48.348;7.878;2022-11-12T01:29:39;11.50;72.90
68011;DHT22;54794;48.348;7.878;2022-11-12T01:32:06;11.50;72.80
68011;DHT22;54794;48.348;7.878;2022-11-12T01:34:33;11.50;72.80
68011;DHT22;54794;48.348;7.878;2022-11-12T01:37:00;11.50;72.80
68011;DHT22;54794;48.348;7.878;2022-11-12T01:39:27;11.50;72.80
68011;DHT22;54794;48.348;7.878;2022-11-12T01:41:54;11.50;72.80
68011;DHT22;54794;48.348;7.878;2022-11-12T01:44:27;11.50;72.80
68011;DHT22;54794;48.348;7.878;2022-11-12T01:50:14;11.50;72.70
68011;DHT22;54794;48.348;7.878;2022-11-12T01:52:50;11.50;72.80
68011;DHT22;54794;48.348;7.878;2022-11-12T01:55:25;11.50;72.70
68011;DHT22;54794;48.348;7.878;2022-11-12T01:58:04;11.50;72.70
68011;DHT22;54794;48.348;7.878;2022-11-12T02:00:35;11.40;72.60
68011;DHT22;54794;48.348;7.878;2022-11-12T02:03:04;11.50;72.70
68011;DHT22;54794;48.348;7.878;2022-11-12T02:05:34;11.50;72.70
68011;DHT22;54794;48.348;7.878;2022-11-12T02:08:04;11.50;72.60
68011;DHT22;54794;48.348;7.878;2022-11-12T02:10:37;11.40;72.60
68011;DHT22;54794;48.348;7.878;2022-11-12T02:13:05;11.40;72.70
68011;DHT22;54794;48.348;7.878;2022-11-12T02:15:52;11.40;72.70
68011;DHT22;54794;48.348;7.878;2022-11-12T02:18:19;11.40;72.70
68011;DHT22;54794;48.348;7.878;2022-11-12T02:20:53;11.40;72.70
68011;DHT22;54794;48.348;7.878;2022-11-12T02:23:22;11.40;72.70
68011;DHT22;54794;48.348;7.878;2022-11-12T02:25:49;11.40;72.60
68011;DHT22;54794;48.348;7.878;2022-11-12T02:28:16;11.30;72.50
68011;DHT22;54794;48.348;7.878;2022-11-12T02:30:47;11.30;72.40
68011;DHT22;54794;48.348;7.878;2022-11-12T02:33:14;11.30;73.00
68011;DHT22;54794;48.348;7.878;2022-11-12T02:35:41;11.30;72.40
68011;DHT22;54794;48.348;7.878;2022-11-12T02:38:09;11.30;72.40
68011;DHT22;54794;48.348;7.878;2022-11-12T02:40:36;11.30;72.50
68011;DHT22;54794;48.348;7.878;2022-11-12T02:43:03;11.30;72.50
68011;DHT22;54794;48.348;7.878;2022-11-12T02:45:30;11.30;72.40
68011;DHT22;54794;48.348;7.878;2022-11-12T02:47:57;11.20;72.30
68011;DHT22;54794;48.348;7.878;2022-11-12T02:50:24;11.20;72.40
68011;DHT22;54794;48.348;7.878;2022-11-12T02:52:51;11.20;72.40
68011;DHT22;54794;48.348;7.878;2022-11-12T02:55:18;11.10;72.40
68011;DHT22;54794;48.348;7.878;2022-11-12T02:57:45;11.10;72.50
68011;DHT22;54794;48.348;7.878;2022-11-12T03:00:12;11.10;72.50
68011;DHT22;54794;48.348;7.878;2022-11-12T03:02:40;11.00;72.50
68011;DHT22;54794;48.348;7.878;2022-11-12T03:05:28;11.10;72.50
68011;DHT22;54794;48.348;7.878;2022-11-12T03:08:00;11.10;72.50
68011;DHT22;54794;48.348;7.878;2022-11-12T03:10:28;11.10;72.50
68011;DHT22;54794;48.348;7.878;2022-11-12T03:12:56;11.00;72.70
68011;DHT22;54794;48.348;7.878;2022-11-12T03:15:26;11.00;72.50
68011;DHT22;54794;48.348;7.878;2022-11-12T03:17:56;11.00;72.40
68011;DHT22;54794;48.348;7.878;2022-11-12T03:20:25;11.00;72.40
68011;DHT22;54794;48.348;7.878;2022-11-12T03:25:26;11.00;72.50
68011;DHT22;54794;48.348;7.878;2022-11-12T03:27:59;11.00;72.60
68011;DHT22;54794;48.348;7.878;2022-11-12T03:30:29;11.00;72.50
68011;DHT22;54794;48.348;7.878;2022-11-12T03:32:58;11.00;72.50
68011;DHT22;54794;48.348;7.878;2022-11-12T03:35:25;10.90;72.40
68011;DHT22;54794;48.348;7.878;2022-11-12T03:37:52;10.90;72.40
68011;DHT22;54794;48.348;7.878;2022-11-12T03:40:19;10.90;72.40
68011;DHT22;54794;48.348;7.878;2022-11-12T03:42:47;10.90;72.40
68011;DHT22;54794;48.348;7.878;2022-11-12T03:45:16;10.90;72.40
68011;DHT22;54794;48.348;7.878;2022-11-12T03:47:46;10.90;72.50
68011;DHT22;54794;48.348;7.878;2022-11-12T03:50:16;10.90;72.60
68011;DHT22;54794;48.348;7.878;2022-11-12T03:52:50;10.90;72.60
68011;DHT22;54794;48.348;7.878;2022-11-12T03:55:20;10.90;72.60
68011;DHT22;54794;48.348;7.878;2022-11-12T03:57:49;10.90;72.60
68011;DHT22;54794;48.348;7.878;2022-11-12T04:00:18;10.90;72.50
68011;DHT22;54794;48.348;7.878;2022-11-12T04:02:47;10.90;72.60
68011;DHT22;54794;48.348;7.878;2022-11-12T04:05:15;10.90;72.50
68011;DHT22;54794;48.348;7.878;2022-11-12T04:08:03;10.90;72.50
68011;DHT22;54794;48.348;7.878;2022-11-12T04:10:51;10.90;72.50
68011;DHT22;54794;48.348;7.878;2022-11-12T04:13:18;10.90;72.50
68011;DHT22;54794;48.348;7.878;2022-11-12T04:18:49;10.90;72.40
68011;DHT22;54794;48.348;7.878;2022-11-12T04:21:42;10.90;73.00
68011;DHT22;54794;48.348;7.878;2022-11-12T04:27:25;10.80;72.50
68011;DHT22;54794;48.348;7.878;2022-11-12T04:29:53;10.80;72.30
68011;DHT22;54794;48.348;7.878;2022-11-12T04:32:52;10.80;72.20
68011;DHT22;54794;48.348;7.878;2022-11-12T04:35:22;10.80;72.20
68011;DHT22;54794;48.348;7.878;2022-11-12T04:37:51;10.70;72.20
68011;DHT22;54794;48.348;7.878;2022-11-12T04:40:22;10.70;72.20
68011;DHT22;54794;48.348;7.878;2022-11-12T04:43:16;10.70;72.10
68011;DHT22;54794;48.348;7.878;2022-11-12T04:46:03;10.60;72.10
68011;DHT22;54794;48.348;7.878;2022-11-12T04:48:30;10.60;72.30
68011;DHT22;54794;48.348;7.878;2022-11-12T04:51:00;10.60;72.40
68011;DHT22;54794;48.348;7.878;2022-11-12T04:53:29;10.60;72.40
68011;DHT22;54794;48.348;7.878;2022-11-12T04:55:58;10.60;72.40
68011;DHT22;54794;48.348;7.878;2022-11-12T04:58:25;10.60;72.50
68011;DHT22;54794;48.348;7.878;2022-11-12T05:00:52;10.60;72.50
68011;DHT22;54794;48.348;7.878;2022-11-12T05:03:19;10.60;72.50
68011;DHT22;54794;48.348;7.878;2022-11-12T05:05:46;10.60;72.40
68011;DHT22;54794;48.348;7.878;2022-11-12T05:08:13;10.60;72.50
68011;DHT22;54794;48.348;7.878;2022-11-12T05:10:40;10.60;72.40
68011;DHT22;54794;48.348;7.878;2022-11-12T05:13:07;10.60;72.40
68011;DHT22;54794;48.348;7.878;2022-11-12T05:15:33;10.60;72.40
68011;DHT22;54794;48.348;7.878;2022-11-12T05:18:00;10.50;72.90
68011;DHT22;54794;48.348;7.878;2022-11-12T05:20:27;10.50;72.40
68011;DHT22;54794;48.348;7.878;2022-11-12T05:22:54;10.60;72.50
68011;DHT22;54794;48.348;7.878;2022-11-12T05:25:34;10.50;72.50
68011;DHT22;54794;48.348;7.878;2022-11-12T05:28:01;10.50;72.40
68011;DHT22;54794;48.348;7.878;2022-11-12T05:30:28;10.50;72.40
68011;DHT22;54794;48.348;7.878;2022-11-12T05:32:55;10.50;72.40
68011;DHT22;54794;48.348;7.878;2022-11-12T05:35:22;10.50;72.40
68011;DHT22;54794;48.348;7.878;2022-11-12T05:37:48;10.50;72.40
68011;DHT22;54794;48.348;7.878;2022-11-12T05:40:15;10.50;72.50
68011;DHT22;54794;48.348;7.878;2022-11-12T05:42:43;10.50;72.50
68011;DHT22;54794;48.348;7.878;2022-11-12T05:45:10;10.50;72.50
68011;DHT22;54794;48.348;7.878;2022-11-12T05:47:37;10.50;73.10
68011;DHT22;54794;48.348;7.878;2022-11-12T05:50:04;10.50;72.60
68011;DHT22;54794;48.348;7.878;2022-11-12T05:52:32;10.50;72.50
68011;DHT22;54794;48.348;7.878;2022-11-12T05:54:58;10.50;72.50
68011;DHT22;54794;48.348;7.878;2022-11-12T05:57:28;10.50;72.50
68011;DHT22;54794;48.348;7.878;2022-11-12T05:59:56;10.50;72.40
68011;DHT22;54794;48.348;7.878;2022-11-12T06:02:22;10.50;72.40
68011;DHT22;54794;48.348;7.878;2022-11-12T06:04:49;10.50;72.40
68011;DHT22;54794;48.348;7.878;2022-11-12T06:07:16;10.50;72.50
68011;DHT22;54794;48.348;7.878;2022-11-12T06:09:43;10.50;72.50
68011;DHT22;54794;48.348;7.878;2022-11-12T06:12:10;10.50;72.50
68011;DHT22;54794;48.348;7.878;2022-11-12T06:14:37;10.50;72.50
68011;DHT22;54794;48.348;7.878;2022-11-12T06:17:03;10.50;72.50
68011;DHT22;54794;48.348;7.878;2022-11-12T06:19:30;10.50;72.60
68011;DHT22;54794;48.348;7.878;2022-11-12T06:21:57;10.50;72.60
68011;DHT22;54794;48.348;7.878;2022-11-12T06:24:24;10.40;72.40
68011;DHT22;54794;48.348;7.878;2022-11-12T06:26:56;10.50;72.50
68011;DHT22;54794;48.348;7.878;2022-11-12T06:29:23;10.50;72.50
68011;DHT22;54794;48.348;7.878;2022-11-12T06:31:49;10.50;72.50
68011;DHT22;54794;48.348;7.878;2022-11-12T06:34:16;10.50;72.50
68011;DHT22;54794;48.348;7.878;2022-11-12T06:36:43;10.40;72.50
68011;DHT22;54794;48.348;7.878;2022-11-12T06:39:10;10.50;72.50
68011;DHT22;54794;48.348;7.878;2022-11-12T06:41:37;10.40;72.50
68011;DHT22;54794;48.348;7.878;2022-11-12T06:44:04;10.40;72.50
68011;DHT22;54794;48.348;7.878;2022-11-12T06:46:31;10.40;72.50
68011;DHT22;54794;48.348;7.878;2022-11-12T06:48:58;10.50;72.50
68011;DHT22;54794;48.348;7.878;2022-11-12T06:51:24;10.50;72.40
68011;DHT22;54794;48.348;7.878;2022-11-12T06:53:51;10.40;72.40
68011;DHT22;54794;48.348;7.878;2022-11-12T06:56:18;10.40;72.40
68011;DHT22;54794;48.348;7.878;2022-11-12T06:58:45;10.40;72.40
68011;DHT22;54794;48.348;7.878;2022-11-12T07:01:13;10.40;72.40
68011;DHT22;54794;48.348;7.878;2022-11-12T07:03:43;10.40;72.40
68011;DHT22;54794;48.348;7.878;2022-11-12T07:06:12;10.40;72.40
68011;DHT22;54794;48.348;7.878;2022-11-12T07:08:43;10.30;72.40
68011;DHT22;54794;48.348;7.878;2022-11-12T07:11:11;10.40;72.50
68011;DHT22;54794;48.348;7.878;2022-11-12T07:13:38;10.40;72.60
68011;DHT22;54794;48.348;7.878;2022-11-12T07:16:06;10.30;72.50
68011;DHT22;54794;48.348;7.878;2022-11-12T07:18:36;10.30;72.50
68011;DHT22;54794;48.348;7.878;2022-11-12T07:21:06;10.30;72.50
68011;DHT22;54794;48.348;7.878;2022-11-12T07:23:35;10.30;72.50
68011;DHT22;54794;48.348;7.878;2022-11-12T07:26:23;10.40;72.60
68011;DHT22;54794;48.348;7.878;2022-11-12T07:28:53;10.30;72.60
68011;DHT22;54794;48.348;7.878;2022-11-12T07:31:23;10.30;72.50
68011;DHT22;54794;48.348;7.878;2022-11-12T07:33:51;10.40;72.70
68011;DHT22;54794;48.348;7.878;2022-11-12T07:36:19;10.40;72.70
68011;DHT22;54794;48.348;7.878;2022-11-12T07:38:50;10.40;72.70
68011;DHT22;54794;48.348;7.878;2022-11-12T07:41:21;10.40;72.70
68011;DHT22;54794;48.348;7.878;2022-11-12T07:43:51;10.40;72.70
68011;DHT22;54794;48.348;7.878;2022-11-12T07:46:24;10.40;72.80
68011;DHT22;54794;48.348;7.878;2022-11-12T07:48:53;10.40;72.80
68011;DHT22;54794;48.348;7.878;2022-11-12T07:51:24;10.40;72.80
68011;DHT22;54794;48.348;7.878;2022-11-12T07:53:54;10.40;72.90
68011;DHT22;54794;48.348;7.878;2022-11-12T07:56:26;10.50;72.70
68011;DHT22;54794;48.348;7.878;2022-11-12T07:58:53;10.50;73.00
68011;DHT22;54794;48.348;7.878;2022-11-12T08:04:01;10.50;72.80
68011;DHT22;54794;48.348;7.878;2022-11-12T08:06:30;10.50;72.80
68011;DHT22;54794;48.348;7.878;2022-11-12T08:08:59;10.50;72.80
68011;DHT22;54794;48.348;7.878;2022-11-12T08:11:27;10.50;72.90
68011;DHT22;54794;48.348;7.878;2022-11-12T08:13:54;10.50;72.80
68011;DHT22;54794;48.348;7.878;2022-11-12T08:16:21;10.50;72.90
68011;DHT22;54794;48.348;7.878;2022-11-12T08:18:47;10.60;72.90
68011;DHT22;54794;48.348;7.878;2022-11-12T08:21:16;10.50;72.80
68011;DHT22;54794;48.348;7.878;2022-11-12T08:23:44;10.60;72.90
68011;DHT22;54794;48.348;7.878;2022-11-12T08:26:12;10.60;72.90
68011;DHT22;54794;48.348;7.878;2022-11-12T08:28:40;10.60;72.90
68011;DHT22;54794;48.348;7.878;2022-11-12T08:31:15;10.60;72.90
68011;DHT22;54794;48.348;7.878;2022-11-12T08:33:44;10.70;72.80
68011;DHT22;54794;48.348;7.878;2022-11-12T08:36:14;10.60;72.90
68011;DHT22;54794;48.348;7.878;2022-11-12T08:38:42;10.70;73.00
68011;DHT22;54794;48.348;7.878;2022-11-12T08:41:11;10.70;73.10
68011;DHT22;54794;48.348;7.878;2022-11-12T08:43:40;10.70;73.10
68011;DHT22;54794;48.348;7.878;2022-11-12T08:46:08;10.70;73.10
68011;DHT22;54794;48.348;7.878;2022-11-12T08:48:35;10.70;73.10
68011;DHT22;54794;48.348;7.878;2022-11-12T08:51:03;10.80;73.70
68011;DHT22;54794;48.348;7.878;2022-11-12T08:53:31;10.80;73.10
68011;DHT22;54794;48.348;7.878;2022-11-12T08:55:59;10.80;73.10
68011;DHT22;54794;48.348;7.878;2022-11-12T08:58:26;10.80;73.10
68011;DHT22;54794;48.348;7.878;2022-11-12T09:00:54;10.90;73.10
68011;DHT22;54794;48.348;7.878;2022-11-12T09:03:24;10.80;73.10
68011;DHT22;54794;48.348;7.878;2022-11-12T09:05:52;10.90;73.20
68011;DHT22;54794;48.348;7.878;2022-11-12T09:08:22;10.90;73.20
68011;DHT22;54794;48.348;7.878;2022-11-12T09:10:51;10.90;73.20
68011;DHT22;54794;48.348;7.878;2022-11-12T09:13:18;11.00;73.20
68011;DHT22;54794;48.348;7.878;2022-11-12T09:15:46;11.00;73.20
68011;DHT22;54794;48.348;7.878;2022-11-12T09:18:15;11.00;73.20
68011;DHT22;54794;48.348;7.878;2022-11-12T09:20:43;11.00;73.10
68011;DHT22;54794;48.348;7.878;2022-11-12T09:23:13;11.00;73.00
68011;DHT22;54794;48.348;7.878;2022-11-12T09:25:41;11.00;73.10
68011;DHT22;54794;48.348;7.878;2022-11-12T09:28:09;11.10;73.20
68011;DHT22;54794;48.348;7.878;2022-11-12T09:30:50;11.10;73.20
68011;DHT22;54794;48.348;7.878;2022-11-12T09:33:26;11.10;73.00
68011;DHT22;54794;48.348;7.878;2022-11-12T09:35:59;11.10;73.10
68011;DHT22;54794;48.348;7.878;2022-11-12T09:38:28;11.10;73.10
68011;DHT22;54794;48.348;7.878;2022-11-12T09:41:20;11.10;73.10
68011;DHT22;54794;48.348;7.878;2022-11-12T09:43:57;11.20;73.20
68011;DHT22;54794;48.348;7.878;2022-11-12T09:50:02;11.20;73.10
68011;DHT22;54794;48.348;7.878;2022-11-12T09:52:32;11.20;73.00
68011;DHT22;54794;48.348;7.878;2022-11-12T09:55:32;11.30;73.00
68011;DHT22;54794;48.348;7.878;2022-11-12T09:58:11;11.30;73.10
68011;DHT22;54794;48.348;7.878;2022-11-12T10:00:52;11.30;73.00
68011;DHT22;54794;48.348;7.878;2022-11-12T10:09:32;11.30;73.00
68011;DHT22;54794;48.348;7.878;2022-11-12T10:15:36;11.30;73.00
68011;DHT22;54794;48.348;7.878;2022-11-12T10:18:49;11.40;73.10
68011;DHT22;54794;48.348;7.878;2022-11-12T10:21:30;11.40;72.90
68011;DHT22;54794;48.348;7.878;2022-11-12T10:24:01;11.40;72.80
68011;DHT22;54794;48.348;7.878;2022-11-12T10:26:31;11.40;73.00
68011;DHT22;54794;48.348;7.878;2022-11-12T10:31:54;11.30;72.70
68011;DHT22;54794;48.348;7.878;2022-11-12T10:34:22;11.30;72.70
68011;DHT22;54794;48.348;7.878;2022-11-12T10:36:54;11.30;72.70
68011;DHT22;54794;48.348;7.878;2022-11-12T10:39:43;11.30;72.90
68011;DHT22;54794;48.348;7.878;2022-11-12T10:42:18;11.30;73.00
68011;DHT22;54794;48.348;7.878;2022-11-12T10:44:48;11.30;73.00
68011;DHT22;54794;48.348;7.878;2022-11-12T10:47:31;11.30;73.10
68011;DHT22;54794;48.348;7.878;2022-11-12T10:52:34;11.30;73.20
68011;DHT22;54794;48.348;7.878;2022-11-12T10:55:12;11.30;73.20
68011;DHT22;54794;48.348;7.878;2022-11-12T10:57:40;11.40;73.20
68011;DHT22;54794;48.348;7.878;2022-11-12T11:02:47;11.40;73.40
68011;DHT22;54794;48.348;7.878;2022-11-12T11:08:04;11.50;73.40
68011;DHT22;54794;48.348;7.878;2022-11-12T11:10:34;11.60;73.20
68011;DHT22;54794;48.348;7.878;2022-11-12T11:16:13;11.60;73.00
68011;DHT22;54794;48.348;7.878;2022-11-12T11:19:01;11.60;73.10
68011;DHT22;54794;48.348;7.878;2022-11-12T11:24:24;11.60;73.20
68011;DHT22;54794;48.348;7.878;2022-11-12T11:27:49;11.60;73.20
68011;DHT22;54794;48.348;7.878;2022-11-12T11:30:21;11.60;73.30
68011;DHT22;54794;48.348;7.878;2022-11-12T11:41:08;11.60;72.70
68011;DHT22;54794;48.348;7.878;2022-11-12T11:47:03;11.50;73.00
68011;DHT22;54794;48.348;7.878;2022-11-12T11:55:58;11.50;73.20
68011;DHT22;54794;48.348;7.878;2022-11-12T12:01:56;11.60;73.30
68011;DHT22;54794;48.348;7.878;2022-11-12T12:08:09;11.60;73.30
68011;DHT22;54794;48.348;7.878;2022-11-12T12:20:38;11.60;73.30
68011;DHT22;54794;48.348;7.878;2022-11-12T12:23:48;11.60;73.10
68011;DHT22;54794;48.348;7.878;2022-11-12T12:26:39;11.70;73.20
68011;DHT22;54794;48.348;7.878;2022-11-12T12:29:27;11.70;73.20
68011;DHT22;54794;48.348;7.878;2022-11-12T12:34:46;11.70;73.20
68011;DHT22;54794;48.348;7.878;2022-11-12T12:40:32;11.70;73.10
68011;DHT22;54794;48.348;7.878;2022-11-12T12:43:09;11.70;73.10
68011;DHT22;54794;48.348;7.878;2022-11-12T12:45:56;11.70;73.10
68011;DHT22;54794;48.348;7.878;2022-11-12T12:48:33;11.70;73.10
68011;DHT22;54794;48.348;7.878;2022-11-12T12:51:03;11.70;73.10
68011;DHT22;54794;48.348;7.878;2022-11-12T12:53:32;11.80;73.20
68011;DHT22;54794;48.348;7.878;2022-11-12T12:56:03;11.80;73.10
68011;DHT22;54794;48.348;7.878;2022-11-12T12:58:51;11.70;73.10
68011;DHT22;54794;48.348;7.878;2022-11-12T13:09:05;11.80;73.20
68011;DHT22;54794;48.348;7.878;2022-11-12T13:11:52;11.80;73.20
68011;DHT22;54794;48.348;7.878;2022-11-12T13:37:47;11.80;73.20
68011;DHT22;54794;48.348;7.878;2022-11-12T13:46:14;11.80;73.10
68011;DHT22;54794;48.348;7.878;2022-11-12T13:48:57;11.80;73.10
68011;DHT22;54794;48.348;7.878;2022-11-12T13:51:41;11.70;73.10
68011;DHT22;54794;48.348;7.878;2022-11-12T13:54:30;11.80;73.20
68011;DHT22;54794;48.348;7.878;2022-11-12T14:05:33;11.80;73.00
68011;DHT22;54794;48.348;7.878;2022-11-12T14:17:45;11.80;73.10
68011;DHT22;54794;48.348;7.878;2022-11-12T14:22:44;11.80;73.10
68011;DHT22;54794;48.348;7.878;2022-11-12T14:25:20;11.80;73.10
68011;DHT22;54794;48.348;7.878;2022-11-12T14:27:53;11.80;73.10
68011;DHT22;54794;48.348;7.878;2022-11-12T14:30:27;11.70;73.00
68011;DHT22;54794;48.348;7.878;2022-11-12T14:32:59;11.70;73.00
68011;DHT22;54794;48.348;7.878;2022-11-12T14:35:35;11.80;73.10
68011;DHT22;54794;48.348;7.878;2022-11-12T14:40:56;11.80;73.00
68011;DHT22;54794;48.348;7.878;2022-11-12T14:43:37;11.70;73.00
68011;DHT22;54794;48.348;7.878;2022-11-12T14:46:07;11.70;73.00
68011;DHT22;54794;48.348;7.878;2022-11-12T14:49:00;11.80;73.10
68011;DHT22;54794;48.348;7.878;2022-11-12T14:51:37;11.80;73.00
68011;DHT22;54794;48.348;7.878;2022-11-12T14:54:17;11.70;72.90
68011;DHT22;54794;48.348;7.878;2022-11-12T14:56:56;11.80;73.00
68011;DHT22;54794;48.348;7.878;2022-11-12T14:59:26;11.80;73.00
68011;DHT22;54794;48.348;7.878;2022-11-12T15:02:15;11.70;72.90
68011;DHT22;54794;48.348;7.878;2022-11-12T15:05:19;11.80;72.90
68011;DHT22;54794;48.348;7.878;2022-11-12T15:08:03;11.70;72.80
68011;DHT22;54794;48.348;7.878;2022-11-12T15:10:41;11.70;72.70
68011;DHT22;54794;48.348;7.878;2022-11-12T15:13:13;11.70;72.60
68011;DHT22;54794;48.348;7.878;2022-11-12T15:16:08;11.60;72.50
68011;DHT22;54794;48.348;7.878;2022-11-12T15:18:38;11.60;72.50
68011;DHT22;54794;48.348;7.878;2022-11-12T15:21:19;11.50;72.60
68011;DHT22;54794;48.348;7.878;2022-11-12T15:23:50;11.50;72.70
68011;DHT22;54794;48.348;7.878;2022-11-12T15:26:32;11.50;72.70
68011;DHT22;54794;48.348;7.878;2022-11-12T15:31:49;11.50;72.80
68011;DHT22;54794;48.348;7.878;2022-11-12T15:34:31;11.50;72.90
68011;DHT22;54794;48.348;7.878;2022-11-12T15:37:08;11.40;72.90
68011;DHT22;54794;48.348;7.878;2022-11-12T15:39:41;11.50;73.00
68011;DHT22;54794;48.348;7.878;2022-11-12T15:42:30;11.40;73.00
68011;DHT22;54794;48.348;7.878;2022-11-12T15:45:09;11.50;73.10
68011;DHT22;54794;48.348;7.878;2022-11-12T15:47:41;11.50;73.10
68011;DHT22;54794;48.348;7.878;2022-11-12T15:50:20;11.50;73.10
68011;DHT22;54794;48.348;7.878;2022-11-12T15:52:49;11.50;73.10
68011;DHT22;54794;48.348;7.878;2022-11-12T15:55:17;11.50;73.00
68011;DHT22;54794;48.348;7.878;2022-11-12T15:57:49;11.50;72.90
68011;DHT22;54794;48.348;7.878;2022-11-12T16:00:19;11.50;72.90
68011;DHT22;54794;48.348;7.878;2022-11-12T16:02:55;11.50;72.90
68011;DHT22;54794;48.348;7.878;2022-11-12T16:05:24;11.50;72.90
68011;DHT22;54794;48.348;7.878;2022-11-12T16:07:51;11.50;72.90
68011;DHT22;54794;48.348;7.878;2022-11-12T16:10:18;11.50;73.00
68011;DHT22;54794;48.348;7.878;2022-11-12T16:12:46;11.40;72.90
68011;DHT22;54794;48.348;7.878;2022-11-12T16:15:15;11.50;73.00
68011;DHT22;54794;48.348;7.878;2022-11-12T16:17:44;11.50;73.00
68011;DHT22;54794;48.348;7.878;2022-11-12T16:22:47;11.40;72.90
68011;DHT22;54794;48.348;7.878;2022-11-12T16:25:16;11.50;72.90
68011;DHT22;54794;48.348;7.878;2022-11-12T16:27:44;11.40;72.80
68011;DHT22;54794;48.348;7.878;2022-11-12T16:30:17;11.40;72.90
68011;DHT22;54794;48.348;7.878;2022-11-12T16:32:49;11.40;72.90
68011;DHT22;54794;48.348;7.878;2022-11-12T16:35:17;11.40;72.90
68011;DHT22;54794;48.348;7.878;2022-11-12T16:37:45;11.40;72.90
68011;DHT22;54794;48.348;7.878;2022-11-12T16:40:18;11.40;72.90
68011;DHT22;54794;48.348;7.878;2022-11-12T16:42:49;11.30;72.80
68011;DHT22;54794;48.348;7.878;2022-11-12T16:45:19;11.40;72.90
68011;DHT22;54794;48.348;7.878;2022-11-12T16:47:50;11.30;72.90
68011;DHT22;54794;48.348;7.878;2022-11-12T16:50:22;11.30;72.90
68011;DHT22;54794;48.348;7.878;2022-11-12T16:52:51;11.30;72.90
68011;DHT22;54794;48.348;7.878;2022-11-12T16:55:19;11.30;72.90
68011;DHT22;54794;48.348;7.878;2022-11-12T16:57:47;11.30;72.90
68011;DHT22;54794;48.348;7.878;2022-11-12T17:00:15;11.30;72.90
68011;DHT22;54794;48.348;7.878;2022-11-12T17:02:44;11.30;72.90
68011;DHT22;54794;48.348;7.878;2022-11-12T17:05:21;11.30;72.90
68011;DHT22;54794;48.348;7.878;2022-11-12T17:07:54;11.30;72.90
68011;DHT22;54794;48.348;7.878;2022-11-12T17:10:22;11.20;72.80
68011;DHT22;54794;48.348;7.878;2022-11-12T17:12:51;11.20;72.70
68011;DHT22;54794;48.348;7.878;2022-11-12T17:15:18;11.20;72.80
68011;DHT22;54794;48.348;7.878;2022-11-12T17:17:45;11.10;72.80
68011;DHT22;54794;48.348;7.878;2022-11-12T17:20:12;11.10;72.80
68011;DHT22;54794;48.348;7.878;2022-11-12T17:22:39;11.10;72.80
68011;DHT22;54794;48.348;7.878;2022-11-12T17:25:06;11.10;72.80
68011;DHT22;54794;48.348;7.878;2022-11-12T17:27:34;11.10;72.80
68011;DHT22;54794;48.348;7.878;2022-11-12T17:30:01;11.10;72.80
68011;DHT22;54794;48.348;7.878;2022-11-12T17:32:29;11.10;72.70
68011;DHT22;54794;48.348;7.878;2022-11-12T17:34:55;11.00;72.80
68011;DHT22;54794;48.348;7.878;2022-11-12T17:37:22;11.00;72.90
68011;DHT22;54794;48.348;7.878;2022-11-12T17:39:49;11.00;72.90
68011;DHT22;54794;48.348;7.878;2022-11-12T17:42:16;11.10;73.00
68011;DHT22;54794;48.348;7.878;2022-11-12T17:44:43;11.00;73.00
68011;DHT22;54794;48.348;7.878;2022-11-12T17:47:11;11.00;72.90
68011;DHT22;54794;48.348;7.878;2022-11-12T17:49:38;11.00;72.70
68011;DHT22;54794;48.348;7.878;2022-11-12T17:52:05;11.00;72.80
68011;DHT22;54794;48.348;7.878;2022-11-12T17:54:32;11.00;72.90
68011;DHT22;54794;48.348;7.878;2022-11-12T17:57:00;10.90;72.70
68011;DHT22;54794;48.348;7.878;2022-11-12T17:59:27;10.90;72.70
68011;DHT22;54794;48.348;7.878;2022-11-12T18:01:53;10.90;72.70
68011;DHT22;54794;48.348;7.878;2022-11-12T18:04:20;10.80;72.60
68011;DHT22;54794;48.348;7.878;2022-11-12T18:06:49;10.80;72.70
68011;DHT22;54794;48.348;7.878;2022-11-12T18:09:16;10.80;72.80
68011;DHT22;54794;48.348;7.878;2022-11-12T18:11:46;10.70;73.00
68011;DHT22;54794;48.348;7.878;2022-11-12T18:14:15;10.70;73.10
68011;DHT22;54794;48.348;7.878;2022-11-12T18:16:42;10.70;73.10
68011;DHT22;54794;48.348;7.878;2022-11-12T18:19:09;10.70;73.10
68011;DHT22;54794;48.348;7.878;2022-11-12T18:21:39;10.70;73.10
68011;DHT22;54794;48.348;7.878;2022-11-12T18:24:11;10.70;73.20
68011;DHT22;54794;48.348;7.878;2022-11-12T18:26:39;10.70;73.10